Huvudsida
METAR-TAF:

METAR-TAF

Flygplatser :

Salgado Filho International Airport

Porto Alegre, Rio Grande do Sul, Brasilien

latitud: 30-00S, longitud: 051-11W, höjd: 3 m

Aktuellt väderrapport

Denna rapport gjordes för 31 minuter sedan, klockan 08:00 UTC
Vind 4 kt från ost
Temperatur 16°C
Fuktighet 94%
Tryck 1011 hPa
Sikt 10 km eller mer
Inga moln under 1 500 m eller inga cumulonimbus

METAR: SBPA 160800Z 09004KT CAVOK 16/15 Q1011

Tid: 05:31 (08:31 UTC)

Väderprognos

Denna rapport gjordes för 7 timmar och 1 minuter sedan, klockan 01:30 UTC
Prognos gäller från 16 kl. 06 UTC till 17 kl. 06 UTC
Vind 6 kt från ost/sydost
Sikt 10 km eller mer
Inga moln under 1 500 m eller inga cumulonimbus
Blir
från 16 kl. 16 UTC till 16 kl. 18 UTC
Vind 11 kt från ost/sydost

TAF: SBPA 160130Z 1606/1706 11006KT CAVOK TN15/1608Z TX28/1618Z BECMG 1616/1618 11011KT RMK PEB

Aktuella väderrapporter och prognoser från 4000 flygplatser (METAR- och TAF-rapporter).

De tillgängliga stationerna syns som gula och röda prickar på kartan.

För musen över prickarna för att se namnen på stationerna.

Klicka sedan för att få väderrapporter och prognoser.

För att ändra kartan: Klicka på de gröna knapparna med ett svart kors på för att zooma in; den gröna knappen med ett streck på för att zooma ut; eller på de gröna pilarna för angränsande kartor.


METAR-TAF: